Time;durP1;ratioP1;P1;durP2;ratioP2;P2;SDS_P1;SDS_P2;PMS_P1;PMS_P2;Temp;Humidity;BMP_temperature;BMP_pressure;BME280_temperature;BME280_humidity;BME280_pressure;Samples;Min_cycle;Max_cycle;Signal;HPM_P1;HPM_P2
2023/12/11 00:01:33;;;;;;;;;;;;;;;;;;2210545;59;2013;-80
2023/12/11 00:04:04;;;;;;;;;;;;;;;;;;2213682;67;2345;-78
2023/12/11 00:06:35;;;;;;;;;;;;;;;;;;2213575;59;2814;-78
2023/12/11 00:09:06;;;;;;;;;;;;;;;;;;2207424;67;2452;-79
2023/12/11 00:11:36;;;;;;;;;;;;;;;;;;2206793;59;2851;-77
2023/12/11 00:14:06;;;;;;;;;;;;;;;;;;2205470;59;2698;-78
2023/12/11 00:16:37;;;;;;;;;;;;;;;;;;2205818;59;2593;-78
2023/12/11 00:19:07;;;;;;;;;;;;;;;;;;2204650;67;2267;-77
2023/12/11 00:21:38;;;;;;;;;;;;;;;;;;2205080;59;2502;-78
2023/12/11 00:24:08;;;;;;;;;;;;;;;;;;2205245;59;1972;-78
2023/12/11 00:26:38;;;;;;;;;;;;;;;;;;2204681;59;2833;-78
2023/12/11 00:29:09;;;;;;;;;;;;;;;;;;2205160;67;2295;-78
2023/12/11 00:31:39;;;;;;;;;;;;;;;;;;2205788;59;2550;-78
2023/12/11 00:34:10;;;;;;;;;;;;;;;;;;2204463;59;2680;-78
2023/12/11 00:36:42;;;;;;;;;;;;;;;;;;2205117;59;2507;-79
2023/12/11 00:39:15;;;;;;;;;;;;;;;;;;2204628;67;2603;-78
2023/12/11 00:41:46;;;;;;;;;;;;;;;;;;2205985;59;1966;-78
2023/12/11 00:44:16;;;;;;;;;;;;;;;;;;2204916;59;1851;-78
2023/12/11 00:46:46;;;;;;;;;;;;;;;;;;2205039;59;2936;-79
2023/12/11 00:49:17;;;;;;;;;;;;;;;;;;2204625;59;3343;-79
2023/12/11 00:51:52;;;;;;;;;;;;;;;;;;2202276;59;2297;-78
2023/12/11 00:54:22;;;;;;;;;;;;;;;;;;2203507;59;2463;-78
2023/12/11 00:56:53;;;;;;;;;;;;;;;;;;2205779;59;2526;-78
2023/12/11 00:59:23;;;;;;;;;;;;;;;;;;2205223;59;2031;-78
2023/12/11 01:01:53;;;;;;;;;;;;;;;;;;2205338;59;2738;-77
2023/12/11 01:04:27;;;;;;;;;;;;;;;;;;2204253;67;2733;-78
2023/12/11 01:06:57;;;;;;;;;;;;;;;;;;2205295;59;2459;-78
2023/12/11 01:09:27;;;;;;;;;;;;;;;;;;2205020;59;2242;-78
2023/12/11 01:11:58;;;;;;;;;;;;;;;;;;2213318;59;2609;-78
2023/12/11 01:14:28;;;;;;;;;;;;;;;;;;2208577;59;2450;-78
2023/12/11 01:16:58;;;;;;;;;;;;;;;;;;2204514;67;2012;-79
2023/12/11 01:19:29;;;;;;;;;;;;;;;;;;2204793;67;2599;-78
2023/12/11 01:21:59;;;;;;;;;;;;;;;;;;2205179;59;2048;-78
2023/12/11 01:24:32;;;;;;;;;;;;;;;;;;2203673;59;2562;-78
2023/12/11 01:27:03;;;;;;;;;;;;;;;;;;2204944;59;2503;-78
2023/12/11 01:29:33;;;;;;;;;;;;;;;;;;2202742;59;2358;-78
2023/12/11 01:32:03;;;;;;;;;;;;;;;;;;2204788;59;2594;-78
2023/12/11 01:34:34;;;;;;;;;;;;;;;;;;2204208;59;2238;-77
2023/12/11 01:37:04;;;;;;;;;;;;;;;;;;2205089;59;1776;-78
2023/12/11 01:39:34;;;;;;;;;;;;;;;;;;2203099;67;2334;-78
2023/12/11 01:42:04;;;;;;;;;;;;;;;;;;2203741;67;2488;-78
2023/12/11 01:44:36;;;;;;;;;;;;;;;;;;2204185;67;2123;-78
2023/12/11 01:47:07;;;;;;;;;;;;;;;;;;2208532;59;3047;-78
2023/12/11 01:49:43;;;;;;;;;;;;;;;;;;2211949;59;2259;-79
2023/12/11 01:52:16;;;;;;;;;;;;;;;;;;2212969;67;1988;-77
2023/12/11 01:54:47;;;;;;;;;;;;;;;;;;2202661;67;1480;-79
2023/12/11 01:57:24;;;;;;;;;;;;;;;;;;2205144;59;1647;-78
2023/12/11 01:59:54;;;;;;;;;;;;;;;;;;2201773;67;1148;-78
2023/12/11 02:02:24;;;;;;;;;;;;;;;;;;2203115;59;1596;-77
2023/12/11 02:04:55;;;;;;;;;;;;;;;;;;2205660;67;1807;-78
2023/12/11 02:07:28;;;;;;;;;;;;;;;;;;2203689;59;2302;-77
2023/12/11 02:09:59;;;;;;;;;;;;;;;;;;2206828;59;1633;-78
2023/12/11 02:12:29;;;;;;;;;;;;;;;;;;2205062;67;1910;-79
2023/12/11 02:15:00;;;;;;;;;;;;;;;;;;2205536;67;1566;-78
2023/12/11 02:17:30;;;;;;;;;;;;;;;;;;2205105;67;1774;-78
2023/12/11 02:20:00;;;;;;;;;;;;;;;;;;2201344;67;1584;-78
2023/12/11 02:22:31;;;;;;;;;;;;;;;;;;2204247;67;1388;-78
2023/12/11 02:25:02;;;;;;;;;;;;;;;;;;2204742;67;1843;-78
2023/12/11 02:27:33;;;;;;;;;;;;;;;;;;2204791;59;1622;-78
2023/12/11 02:30:04;;;;;;;;;;;;;;;;;;2205679;67;1408;-78
2023/12/11 02:32:37;;;;;;;;;;;;;;;;;;2204412;67;2337;-78
2023/12/11 02:35:07;;;;;;;;;;;;;;;;;;2205746;67;1279;-78
2023/12/11 02:37:41;;;;;;;;;;;;;;;;;;2204924;67;1695;-78
2023/12/11 02:40:14;;;;;;;;;;;;;;;;;;2206106;67;1654;-78
2023/12/11 02:42:47;;;;;;;;;;;;;;;;;;2205633;67;1827;-78
2023/12/11 02:45:18;;;;;;;;;;;;;;;;;;2204797;67;1735;-78
2023/12/11 02:47:48;;;;;;;;;;;;;;;;;;2206858;60;2879;-78
2023/12/11 02:50:18;;;;;;;;;;;;;;;;;;2205395;59;3385;-78
2023/12/11 02:52:49;;;;;;;;;;;;;;;;;;2204998;67;1933;-79
2023/12/11 02:55:19;;;;;;;;;;;;;;;;;;2204792;67;2502;-78
2023/12/11 02:57:49;;;;;;;;;;;;;;;;;;2205778;67;2727;-78
2023/12/11 03:00:20;;;;;;;;;;;;;;;;;;2204570;67;2119;-78
2023/12/11 03:02:50;;;;;;;;;;;;;;;;;;2206629;67;3263;-78
2023/12/11 03:05:21;;;;;;;;;;;;;;;;;;2205711;59;2625;-77
2023/12/11 03:07:51;;;;;;;;;;;;;;;;;;2203195;59;2553;-78
2023/12/11 03:10:22;;;;;;;;;;;;;;;;;;2205715;59;2602;-78
2023/12/11 03:12:52;;;;;;;;;;;;;;;;;;2205876;67;2407;-78
2023/12/11 03:15:23;;;;;;;;;;;;;;;;;;2205524;59;2449;-78
2023/12/11 03:17:53;;;;;;;;;;;;;;;;;;2205784;67;2400;-78
2023/12/11 03:20:23;;;;;;;;;;;;;;;;;;2205878;59;1983;-78
2023/12/11 03:22:54;;;;;;;;;;;;;;;;;;2206633;59;2563;-79
2023/12/11 03:25:24;;;;;;;;;;;;;;;;;;2206175;59;2320;-78
2023/12/11 03:27:54;;;;;;;;;;;;;;;;;;2206684;59;2575;-78
2023/12/11 03:30:25;;;;;;;;;;;;;;;;;;2205693;59;2509;-78
2023/12/11 03:32:55;;;;;;;;;;;;;;;;;;2207075;67;2557;-78
2023/12/11 03:35:25;;;;;;;;;;;;;;;;;;2205419;60;2701;-78
2023/12/11 03:37:57;;;;;;;;;;;;;;;;;;2206475;59;2329;-78
2023/12/11 03:40:27;;;;;;;;;;;;;;;;;;2204753;59;2134;-78
2023/12/11 03:42:57;;;;;;;;;;;;;;;;;;2205956;59;2191;-78
2023/12/11 03:45:28;;;;;;;;;;;;;;;;;;2204368;67;2690;-78
2023/12/11 03:47:58;;;;;;;;;;;;;;;;;;2206556;59;1813;-77
2023/12/11 03:50:29;;;;;;;;;;;;;;;;;;2204459;59;2945;-78
2023/12/11 03:52:59;;;;;;;;;;;;;;;;;;2201917;59;2208;-77
2023/12/11 03:55:30;;;;;;;;;;;;;;;;;;2205201;59;2381;-78
2023/12/11 03:58:00;;;;;;;;;;;;;;;;;;2206331;59;2710;-78
2023/12/11 04:00:30;;;;;;;;;;;;;;;;;;2204968;59;2403;-78
2023/12/11 04:03:01;;;;;;;;;;;;;;;;;;2206636;59;2089;-79
2023/12/11 04:05:31;;;;;;;;;;;;;;;;;;2205074;59;2167;-79
2023/12/11 04:08:01;;;;;;;;;;;;;;;;;;2206436;59;2746;-78
2023/12/11 04:10:32;;;;;;;;;;;;;;;;;;2201903;59;2449;-77
2023/12/11 04:13:02;;;;;;;;;;;;;;;;;;2205486;67;2803;-78
2023/12/11 04:15:33;;;;;;;;;;;;;;;;;;2204909;67;2532;-78
2023/12/11 04:18:03;;;;;;;;;;;;;;;;;;2204879;59;2137;-78
2023/12/11 04:20:33;;;;;;;;;;;;;;;;;;2203501;59;2631;-78
2023/12/11 04:23:03;;;;;;;;;;;;;;;;;;2205447;67;2555;-78
2023/12/11 04:25:34;;;;;;;;;;;;;;;;;;2203610;63;2552;-79
2023/12/11 04:28:04;;;;;;;;;;;;;;;;;;2205520;60;2005;-79
2023/12/11 04:30:36;;;;;;;;;;;;;;;;;;2203208;60;2443;-78
2023/12/11 04:33:06;;;;;;;;;;;;;;;;;;2204426;59;2817;-78
2023/12/11 04:35:36;;;;;;;;;;;;;;;;;;2204154;59;2535;-78
2023/12/11 04:38:06;;;;;;;;;;;;;;;;;;2204756;59;2267;-78
2023/12/11 04:40:37;;;;;;;;;;;;;;;;;;2201933;60;2566;-78
2023/12/11 04:43:07;;;;;;;;;;;;;;;;;;2205463;59;1869;-78
2023/12/11 04:45:37;;;;;;;;;;;;;;;;;;2204079;59;2289;-78
2023/12/11 04:48:08;;;;;;;;;;;;;;;;;;2205815;59;3058;-78
2023/12/11 04:50:38;;;;;;;;;;;;;;;;;;2203511;59;2961;-78
2023/12/11 04:53:08;;;;;;;;;;;;;;;;;;2204031;59;2871;-78
2023/12/11 04:55:39;;;;;;;;;;;;;;;;;;2204839;59;2674;-78
2023/12/11 04:58:09;;;;;;;;;;;;;;;;;;2205275;59;2817;-78
2023/12/11 05:00:40;;;;;;;;;;;;;;;;;;2203722;59;2179;-79
2023/12/11 05:03:10;;;;;;;;;;;;;;;;;;2206629;59;2942;-79
2023/12/11 05:05:40;;;;;;;;;;;;;;;;;;2204658;59;2925;-78
2023/12/11 05:08:10;;;;;;;;;;;;;;;;;;2206456;59;2351;-78
2023/12/11 05:10:41;;;;;;;;;;;;;;;;;;2205080;59;1751;-77
2023/12/11 05:13:11;;;;;;;;;;;;;;;;;;2205321;59;2768;-78
2023/12/11 05:15:41;;;;;;;;;;;;;;;;;;2204234;67;2431;-78
2023/12/11 05:18:12;;;;;;;;;;;;;;;;;;2205731;59;2780;-78
2023/12/11 05:20:42;;;;;;;;;;;;;;;;;;2203798;59;2328;-78
2023/12/11 05:23:12;;;;;;;;;;;;;;;;;;2206060;59;3089;-78
2023/12/11 05:25:43;;;;;;;;;;;;;;;;;;2204760;59;2343;-78
2023/12/11 05:28:13;;;;;;;;;;;;;;;;;;2205025;67;2582;-78
2023/12/11 05:30:43;;;;;;;;;;;;;;;;;;2206246;59;2491;-78
2023/12/11 05:33:13;;;;;;;;;;;;;;;;;;2208104;59;2143;-78
2023/12/11 05:35:44;;;;;;;;;;;;;;;;;;2206283;67;2711;-78
2023/12/11 05:38:14;;;;;;;;;;;;;;;;;;2206501;59;2405;-78
2023/12/11 05:40:45;;;;;;;;;;;;;;;;;;2205040;59;2917;-78
2023/12/11 05:43:15;;;;;;;;;;;;;;;;;;2206485;67;2429;-78
2023/12/11 05:45:46;;;;;;;;;;;;;;;;;;2205287;67;2300;-78
2023/12/11 05:48:18;;;;;;;;;;;;;;;;;;2205629;67;2345;-78
2023/12/11 05:50:49;;;;;;;;;;;;;;;;;;2204714;59;2510;-78
2023/12/11 05:53:19;;;;;;;;;;;;;;;;;;2204954;59;2986;-78
2023/12/11 05:55:49;;;;;;;;;;;;;;;;;;2204687;60;1689;-78
2023/12/11 05:58:23;;;;;;;;;;;;;;;;;;2205260;59;1781;-78
2023/12/11 06:00:53;;;;;;;;;;;;;;;;;;2204411;59;1917;-78
2023/12/11 06:03:23;;;;;;;;;;;;;;;;;;2205163;59;1721;-78
2023/12/11 06:05:58;;;;;;;;;;;;;;;;;;2205331;59;2399;-78
2023/12/11 06:08:28;;;;;;;;;;;;;;;;;;2204307;59;3576;-78
2023/12/11 06:10:58;;;;;;;;;;;;;;;;;;2206222;59;2236;-78
2023/12/11 06:13:28;;;;;;;;;;;;;;;;;;2207072;59;1980;-78
2023/12/11 06:15:59;;;;;;;;;;;;;;;;;;2207797;59;2691;-78
2023/12/11 06:18:29;;;;;;;;;;;;;;;;;;2206901;59;2463;-78
2023/12/11 06:20:59;;;;;;;;;;;;;;;;;;2205993;67;2628;-78
2023/12/11 06:23:30;;;;;;;;;;;;;;;;;;2205897;59;2123;-79
2023/12/11 06:26:00;;;;;;;;;;;;;;;;;;2208492;67;2081;-78
2023/12/11 06:28:30;;;;;;;;;;;;;;;;;;2206897;67;2481;-78
2023/12/11 06:31:01;;;;;;;;;;;;;;;;;;2207155;59;2600;-77
2023/12/11 06:33:31;;;;;;;;;;;;;;;;;;2208560;59;2463;-78
2023/12/11 06:36:01;;;;;;;;;;;;;;;;;;2209396;67;1930;-78
2023/12/11 06:38:40;;;;;;;;;;;;;;;;;;2209013;59;2353;-78
2023/12/11 06:41:11;;;;;;;;;;;;;;;;;;2214284;59;2388;-79
2023/12/11 06:43:41;;;;;;;;;;;;;;;;;;2214403;59;2530;-78
2023/12/11 06:46:12;;;;;;;;;;;;;;;;;;2214737;59;2555;-80
2023/12/11 06:48:44;;;;;;;;;;;;;;;;;;2212937;59;2433;-78
2023/12/11 06:51:16;;;;;;;;;;;;;;;;;;2208310;59;2083;-78
2023/12/11 06:53:46;;;;;;;;;;;;;;;;;;2206090;59;2571;-78
2023/12/11 06:56:17;;;;;;;;;;;;;;;;;;2206810;67;2631;-78
2023/12/11 06:58:48;;;;;;;;;;;;;;;;;;2206105;59;1776;-78
2023/12/11 07:01:18;;;;;;;;;;;;;;;;;;2203486;59;1779;-78
2023/12/11 07:04:01;;;;;;;;;;;;;;;;;;2203724;59;2437;-78
2023/12/11 07:06:31;;;;;;;;;;;;;;;;;;2207868;59;2396;-78
2023/12/11 07:09:02;;;;;;;;;;;;;;;;;;2209489;59;2134;-78
2023/12/11 07:11:33;;;;;;;;;;;;;;;;;;2206422;59;1902;-78
2023/12/11 07:14:04;;;;;;;;;;;;;;;;;;2206146;59;1593;-78
2023/12/11 07:16:35;;;;;;;;;;;;;;;;;;2206862;67;1346;-78
2023/12/11 07:19:06;;;;;;;;;;;;;;;;;;2208077;67;1361;-78
2023/12/11 07:21:37;;;;;;;;;;;;;;;;;;2208045;67;1343;-77
2023/12/11 07:24:07;;;;;;;;;;;;;;;;;;2208513;67;1477;-78
2023/12/11 07:26:37;;;;;;;;;;;;;;;;;;2208050;67;1146;-78
2023/12/11 07:29:08;;;;;;;;;;;;;;;;;;2206110;67;1472;-78
2023/12/11 07:31:41;;;;;;;;;;;;;;;;;;2209420;59;2444;-79
2023/12/11 07:34:14;;;;;;;;;;;;;;;;;;2209183;59;2400;-78
2023/12/11 07:36:51;;;;;;;;;;;;;;;;;;2207955;59;2107;-78
2023/12/11 07:39:21;;;;;;;;;;;;;;;;;;2208427;59;1287;-78
2023/12/11 07:41:51;;;;;;;;;;;;;;;;;;2209924;59;1968;-78
2023/12/11 07:44:24;;;;;;;;;;;;;;;;;;2209722;67;2141;-78
2023/12/11 07:46:55;;;;;;;;;;;;;;;;;;2208887;59;1949;-78
2023/12/11 07:49:25;;;;;;;;;;;;;;;;;;2208968;59;1790;-78
2023/12/11 07:51:56;;;;;;;;;;;;;;;;;;2208672;67;2016;-78
2023/12/11 07:54:26;;;;;;;;;;;;;;;;;;2205649;59;2796;-77
2023/12/11 07:56:56;;;;;;;;;;;;;;;;;;2205415;59;3031;-78
2023/12/11 07:59:29;;;;;;;;;;;;;;;;;;2205781;59;3040;-77
2023/12/11 08:01:59;;;;;;;;;;;;;;;;;;2204180;59;1979;-78
2023/12/11 08:04:29;;;;;;;;;;;;;;;;;;2205713;59;2223;-77
2023/12/11 08:07:00;;;;;;;;;;;;;;;;;;2205493;59;2578;-78
2023/12/11 08:09:34;;;;;;;;;;;;;;;;;;2204926;59;2660;-77
2023/12/11 08:12:05;;;;;;;;;;;;;;;;;;2205081;59;2569;-78
2023/12/11 08:14:37;;;;;;;;;;;;;;;;;;2204394;59;2452;-77
2023/12/11 08:17:08;;;;;;;;;;;;;;;;;;2205268;59;2401;-78
2023/12/11 08:19:38;;;;;;;;;;;;;;;;;;2204425;59;2353;-78
2023/12/11 08:22:08;;;;;;;;;;;;;;;;;;2206012;59;2260;-78
2023/12/11 08:24:39;;;;;;;;;;;;;;;;;;2205133;59;2363;-78
2023/12/11 08:27:16;;;;;;;;;;;;;;;;;;2206219;59;2283;-80
2023/12/11 08:29:46;;;;;;;;;;;;;;;;;;2205125;59;2520;-79
2023/12/11 08:32:16;;;;;;;;;;;;;;;;;;2206854;59;2301;-79
2023/12/11 08:34:47;;;;;;;;;;;;;;;;;;2205985;59;2553;-79
2023/12/11 08:37:17;;;;;;;;;;;;;;;;;;2207974;59;2370;-79
2023/12/11 08:39:47;;;;;;;;;;;;;;;;;;2206133;59;2744;-80
2023/12/11 08:42:18;;;;;;;;;;;;;;;;;;2207316;67;2311;-78
2023/12/11 08:44:48;;;;;;;;;;;;;;;;;;2206377;59;2220;-84
2023/12/11 08:47:18;;;;;;;;;;;;;;;;;;2207553;67;2338;-80
2023/12/11 08:49:49;;;;;;;;;;;;;;;;;;2207992;59;2340;-79
2023/12/11 08:52:19;;;;;;;;;;;;;;;;;;2207860;59;1992;-79
2023/12/11 08:54:50;;;;;;;;;;;;;;;;;;2203745;59;2797;-79
2023/12/11 08:57:22;;;;;;;;;;;;;;;;;;2207916;59;2580;-79
2023/12/11 08:59:52;;;;;;;;;;;;;;;;;;2207679;59;1896;-79
2023/12/11 09:02:23;;;;;;;;;;;;;;;;;;2207857;59;2499;-78
2023/12/11 09:04:53;;;;;;;;;;;;;;;;;;2206701;59;2438;-80
2023/12/11 09:07:24;;;;;;;;;;;;;;;;;;2207552;59;2524;-79
2023/12/11 09:09:55;;;;;;;;;;;;;;;;;;2205983;59;2121;-80
2023/12/11 09:12:25;;;;;;;;;;;;;;;;;;2207069;59;1936;-78
2023/12/11 09:14:58;;;;;;;;;;;;;;;;;;2207266;59;2427;-79
2023/12/11 09:17:29;;;;;;;;;;;;;;;;;;2204634;59;2182;-79
2023/12/11 09:19:59;;;;;;;;;;;;;;;;;;2205852;67;2632;-79
2023/12/11 09:22:29;;;;;;;;;;;;;;;;;;2204879;59;1997;-78
2023/12/11 09:25:00;;;;;;;;;;;;;;;;;;2207766;59;2048;-79
2023/12/11 09:27:30;;;;;;;;;;;;;;;;;;2206877;59;2855;-78
2023/12/11 09:30:01;;;;;;;;;;;;;;;;;;2206360;59;2522;-78
2023/12/11 09:32:31;;;;;;;;;;;;;;;;;;2206762;59;1994;-78
2023/12/11 09:35:01;;;;;;;;;;;;;;;;;;2206838;67;2384;-81
2023/12/11 09:37:32;;;;;;;;;;;;;;;;;;2207209;59;2630;-78
2023/12/11 09:40:02;;;;;;;;;;;;;;;;;;2206730;59;2731;-78
2023/12/11 09:42:34;;;;;;;;;;;;;;;;;;2201979;59;1981;-78
2023/12/11 09:45:05;;;;;;;;;;;;;;;;;;2205805;59;2333;-77
2023/12/11 09:47:47;;;;;;;;;;;;;;;;;;2205893;59;2252;-80
2023/12/11 09:50:17;;;;;;;;;;;;;;;;;;2204879;59;2325;-78
2023/12/11 09:52:49;;;;;;;;;;;;;;;;;;2207599;67;2615;-79
2023/12/11 09:55:20;;;;;;;;;;;;;;;;;;2206815;59;2886;-81
2023/12/11 09:57:53;;;;;;;;;;;;;;;;;;2205799;67;3070;-78
2023/12/11 10:00:28;;;;;;;;;;;;;;;;;;2208480;59;2859;-79
2023/12/11 10:03:00;;;;;;;;;;;;;;;;;;2207503;59;2177;-79
2023/12/11 10:05:33;;;;;;;;;;;;;;;;;;2208314;59;2433;-78
2023/12/11 10:08:06;;;;;;;;;;;;;;;;;;2207643;59;2137;-79
2023/12/11 10:10:38;;;;;;;;;;;;;;;;;;2205064;59;2333;-79
2023/12/11 10:13:10;;;;;;;;;;;;;;;;;;2205252;67;2291;-79
2023/12/11 10:15:40;;;;;;;;;;;;;;;;;;2205114;59;2332;-79
2023/12/11 10:18:12;;;;;;;;;;;;;;;;;;2206247;59;1982;-77
2023/12/11 10:20:42;;;;;;;;;;;;;;;;;;2204019;67;1709;-79
2023/12/11 10:23:17;;;;;;;;;;;;;;;;;;2204894;59;2028;-78
2023/12/11 10:25:48;;;;;;;;;;;;;;;;;;2207785;67;1957;-79
2023/12/11 10:28:20;;;;;;;;;;;;;;;;;;2207789;59;2206;-79
2023/12/11 10:30:51;;;;;;;;;;;;;;;;;;2207423;67;2094;-79
2023/12/11 10:33:22;;;;;;;;;;;;;;;;;;2207401;59;2611;-80
2023/12/11 10:36:06;;;;;;;;;;;;;;;;;;2207398;59;2208;-79
2023/12/11 10:38:37;;;;;;;;;;;;;;;;;;2208662;67;1900;-78
2023/12/11 10:41:08;;;;;;;;;;;;;;;;;;2206845;59;2324;-80
2023/12/11 10:43:42;;;;;;;;;;;;;;;;;;2206285;67;1780;-79
2023/12/11 10:46:12;;;;;;;;;;;;;;;;;;2207706;67;2688;-79
2023/12/11 10:48:43;;;;;;;;;;;;;;;;;;2204662;59;2482;-78
2023/12/11 10:51:13;;;;;;;;;;;;;;;;;;2208388;59;2617;-79
2023/12/11 10:53:44;;;;;;;;;;;;;;;;;;2207320;59;2336;-81
2023/12/11 10:56:15;;;;;;;;;;;;;;;;;;2204952;67;2988;-80
2023/12/11 10:58:45;;;;;;;;;;;;;;;;;;2211549;59;2442;-78
2023/12/11 11:01:21;;;;;;;;;;;;;;;;;;2212650;59;2574;-79
2023/12/11 11:03:52;;;;;;;;;;;;;;;;;;2211346;59;2743;-79
2023/12/11 11:06:46;;;;;;;;;;;;;;;;;;2213087;59;2565;-79
2023/12/11 11:09:22;;;;;;;;;;;;;;;;;;2213973;67;1320;-78
2023/12/11 11:11:57;;;;;;;;;;;;;;;;;;2208976;59;2144;-79
2023/12/11 11:14:50;;;;;;;;;;;;;;;;;;2212450;59;1262;-79
2023/12/11 11:17:59;;;;;;;;;;;;;;;;;;2211348;67;2293;-79
2023/12/11 11:20:31;;;;;;;;;;;;;;;;;;2212610;59;2932;-79
2023/12/11 11:23:27;;;;;;;;;;;;;;;;;;2211600;59;2067;-79
2023/12/11 11:26:27;;;;;;;;;;;;;;;;;;2211782;67;1303;-78
2023/12/11 11:28:57;;;;;;;;;;;;;;;;;;2208358;59;2153;-78
2023/12/11 11:31:46;;;;;;;;;;;;;;;;;;2208099;67;1939;-79
2023/12/11 11:34:35;;;;;;;;;;;;;;;;;;2205632;59;2270;-79
2023/12/11 11:37:17;;;;;;;;;;;;;;;;;;2208439;59;1562;-78
2023/12/11 11:40:01;;;;;;;;;;;;;;;;;;2206814;59;2814;-81
2023/12/11 11:42:33;;;;;;;;;;;;;;;;;;2204910;59;2086;-79
2023/12/11 11:45:07;;;;;;;;;;;;;;;;;;2206907;67;2391;-78
2023/12/11 11:47:38;;;;;;;;;;;;;;;;;;2208160;67;1666;-78
2023/12/11 11:50:10;;;;;;;;;;;;;;;;;;2207361;59;2261;-82
2023/12/11 11:52:46;;;;;;;;;;;;;;;;;;2208850;59;1918;-78
2023/12/11 11:55:26;;;;;;;;;;;;;;;;;;2207857;59;2003;-78
2023/12/11 11:57:57;;;;;;;;;;;;;;;;;;2206534;59;2988;-78
2023/12/11 12:00:33;;;;;;;;;;;;;;;;;;2208067;59;2391;-79
2023/12/11 12:03:04;;;;;;;;;;;;;;;;;;2207740;59;2498;-78
2023/12/11 12:05:36;;;;;;;;;;;;;;;;;;2208295;59;2285;-78
2023/12/11 12:08:07;;;;;;;;;;;;;;;;;;2216023;59;2768;-79
2023/12/11 12:10:40;;;;;;;;;;;;;;;;;;2216444;59;2578;-79
2023/12/11 12:13:10;;;;;;;;;;;;;;;;;;2211856;59;2749;-78
2023/12/11 12:15:42;;;;;;;;;;;;;;;;;;2205864;59;1869;-81
2023/12/11 12:18:12;;;;;;;;;;;;;;;;;;2208083;59;2495;-79
2023/12/11 12:20:42;;;;;;;;;;;;;;;;;;2208644;59;2142;-78
2023/12/11 12:23:15;;;;;;;;;;;;;;;;;;2207119;67;2003;-78
2023/12/11 12:25:50;;;;;;;;;;;;;;;;;;2208659;59;2234;-78
2023/12/11 12:28:21;;;;;;;;;;;;;;;;;;2208743;59;1704;-79
2023/12/11 12:30:51;;;;;;;;;;;;;;;;;;2208271;59;1890;-78
2023/12/11 12:33:22;;;;;;;;;;;;;;;;;;2208791;59;2388;-79
2023/12/11 12:35:52;;;;;;;;;;;;;;;;;;2207673;59;2335;-79
2023/12/11 12:38:23;;;;;;;;;;;;;;;;;;2203706;59;2412;-78
2023/12/11 12:40:54;;;;;;;;;;;;;;;;;;2207395;67;2615;-78
2023/12/11 12:43:26;;;;;;;;;;;;;;;;;;2208551;67;1997;-78
2023/12/11 12:45:59;;;;;;;;;;;;;;;;;;2207160;67;2238;-78
2023/12/11 12:48:29;;;;;;;;;;;;;;;;;;2208659;67;2038;-78
2023/12/11 12:51:06;;;;;;;;;;;;;;;;;;2207844;59;2686;-79
2023/12/11 12:53:51;;;;;;;;;;;;;;;;;;2208660;59;2658;-79
2023/12/11 12:56:23;;;;;;;;;;;;;;;;;;2210145;59;2254;-80
2023/12/11 12:58:55;;;;;;;;;;;;;;;;;;2205526;59;3172;-79
2023/12/11 13:01:26;;;;;;;;;;;;;;;;;;2210452;59;3049;-79
2023/12/11 13:04:00;;;;;;;;;;;;;;;;;;2206399;67;3105;-79
2023/12/11 13:06:31;;;;;;;;;;;;;;;;;;2209857;59;2070;-79
2023/12/11 13:09:05;;;;;;;;;;;;;;;;;;2209251;59;2791;-79
2023/12/11 13:11:38;;;;;;;;;;;;;;;;;;2209189;59;2578;-79
2023/12/11 13:14:09;;;;;;;;;;;;;;;;;;2208692;59;2403;-79
2023/12/11 13:16:43;;;;;;;;;;;;;;;;;;2208386;59;2593;-79
2023/12/11 13:19:13;;;;;;;;;;;;;;;;;;2208561;59;2050;-80
2023/12/11 13:21:44;;;;;;;;;;;;;;;;;;2206660;59;2368;-79
2023/12/11 13:24:19;;;;;;;;;;;;;;;;;;2207961;67;1754;-79
2023/12/11 13:26:51;;;;;;;;;;;;;;;;;;2206664;59;2324;-79
2023/12/11 13:29:21;;;;;;;;;;;;;;;;;;2208488;67;2931;-79
2023/12/11 13:31:56;;;;;;;;;;;;;;;;;;2209021;59;1943;-79
2023/12/11 13:34:27;;;;;;;;;;;;;;;;;;2206019;59;1856;-79
2023/12/11 13:36:58;;;;;;;;;;;;;;;;;;2209488;59;2511;-79
2023/12/11 13:39:29;;;;;;;;;;;;;;;;;;2209317;59;2577;-78
2023/12/11 13:42:10;;;;;;;;;;;;;;;;;;2208868;59;2245;-79
2023/12/11 13:44:43;;;;;;;;;;;;;;;;;;2209616;59;2397;-79
2023/12/11 13:47:18;;;;;;;;;;;;;;;;;;2210438;59;1948;-78
2023/12/11 13:49:51;;;;;;;;;;;;;;;;;;2211396;59;2506;-79
2023/12/11 13:52:21;;;;;;;;;;;;;;;;;;2209511;67;2156;-80
2023/12/11 13:54:58;;;;;;;;;;;;;;;;;;2210010;67;1008;-80
2023/12/11 13:57:28;;;;;;;;;;;;;;;;;;2211036;59;2888;-80
2023/12/11 14:00:01;;;;;;;;;;;;;;;;;;2207340;59;2709;-78
2023/12/11 14:02:38;;;;;;;;;;;;;;;;;;2210011;59;1905;-82
2023/12/11 14:05:09;;;;;;;;;;;;;;;;;;2210134;59;2476;-82
2023/12/11 14:07:40;;;;;;;;;;;;;;;;;;2211058;67;1555;-77
2023/12/11 14:10:13;;;;;;;;;;;;;;;;;;2210965;59;2058;-79
2023/12/11 14:12:43;;;;;;;;;;;;;;;;;;2212412;59;1987;-81
2023/12/11 14:15:14;;;;;;;;;;;;;;;;;;2211847;59;1808;-78
2023/12/11 14:17:45;;;;;;;;;;;;;;;;;;2211602;59;2366;-78
2023/12/11 14:20:18;;;;;;;;;;;;;;;;;;2209306;59;2460;-78
2023/12/11 14:22:49;;;;;;;;;;;;;;;;;;2211516;59;1722;-79
2023/12/11 14:25:27;;;;;;;;;;;;;;;;;;2207608;59;2558;-82
2023/12/11 14:28:03;;;;;;;;;;;;;;;;;;2210199;59;2381;-79
2023/12/11 14:30:37;;;;;;;;;;;;;;;;;;2210153;59;1549;-79
2023/12/11 14:33:10;;;;;;;;;;;;;;;;;;2207543;67;2058;-78
2023/12/11 14:35:41;;;;;;;;;;;;;;;;;;2211548;67;1590;-79
2023/12/11 14:38:14;;;;;;;;;;;;;;;;;;2211057;67;1445;-79
2023/12/11 14:40:47;;;;;;;;;;;;;;;;;;2211187;67;1338;-78
2023/12/11 14:43:17;;;;;;;;;;;;;;;;;;2211653;67;1294;-81
2023/12/11 14:45:48;;;;;;;;;;;;;;;;;;2212067;59;2534;-79
2023/12/11 14:48:20;;;;;;;;;;;;;;;;;;2206024;59;1900;-78
2023/12/11 14:50:56;;;;;;;;;;;;;;;;;;2210659;59;1639;-79
2023/12/11 14:53:27;;;;;;;;;;;;;;;;;;2210710;59;1940;-79
2023/12/11 14:56:01;;;;;;;;;;;;;;;;;;2208824;67;2056;-79
2023/12/11 14:58:34;;;;;;;;;;;;;;;;;;2210672;59;1691;-78
2023/12/11 15:01:05;;;;;;;;;;;;;;;;;;2206803;59;2821;-78
2023/12/11 15:03:39;;;;;;;;;;;;;;;;;;2210371;59;1713;-78
2023/12/11 15:06:22;;;;;;;;;;;;;;;;;;;;;
2023/12/11 15:08:55;;;;;;;;;;;;;;;;;;2209294;59;1780;-79
2023/12/11 15:11:27;;;;;;;;;;;;;;;;;;2209825;59;2032;-80
2023/12/11 15:13:59;;;;;;;;;;;;;;;;;;2206956;67;1918;-78
2023/12/11 15:16:36;;;;;;;;;;;;;;;;;;2211340;59;1555;-78
2023/12/11 15:19:06;;;;;;;;;;;;;;;;;;2209549;59;2106;-78
2023/12/11 15:21:40;;;;;;;;;;;;;;;;;;2209722;59;1986;-79
2023/12/11 15:24:15;;;;;;;;;;;;;;;;;;2209883;59;2548;-79
2023/12/11 15:26:46;;;;;;;;;;;;;;;;;;2210605;59;2708;-78
2023/12/11 15:29:21;;;;;;;;;;;;;;;;;;2206620;59;2528;-79
2023/12/11 15:31:52;;;;;;;;;;;;;;;;;;2210580;59;1960;-78
2023/12/11 15:34:25;;;;;;;;;;;;;;;;;;2210211;59;2461;-78
2023/12/11 15:36:58;;;;;;;;;;;;;;;;;;2210982;59;1877;-79
2023/12/11 15:39:32;;;;;;;;;;;;;;;;;;2209614;59;2525;-78
2023/12/11 15:42:05;;;;;;;;;;;;;;;;;;2210049;59;2408;-78
2023/12/11 15:44:35;;;;;;;;;;;;;;;;;;2209851;59;2209;-78
2023/12/11 15:47:07;;;;;;;;;;;;;;;;;;2209557;59;1634;-83
2023/12/11 15:49:40;;;;;;;;;;;;;;;;;;2210276;59;1726;-79
2023/12/11 15:52:11;;;;;;;;;;;;;;;;;;2207341;59;2002;-79
2023/12/11 15:54:44;;;;;;;;;;;;;;;;;;2210681;59;1868;-78
2023/12/11 15:57:14;;;;;;;;;;;;;;;;;;2209746;59;2007;-81
2023/12/11 15:59:47;;;;;;;;;;;;;;;;;;2207397;59;1478;-78
2023/12/11 16:02:19;;;;;;;;;;;;;;;;;;2205528;59;2836;-79
2023/12/11 16:04:49;;;;;;;;;;;;;;;;;;2210700;59;1881;-78
2023/12/11 16:07:25;;;;;;;;;;;;;;;;;;2209361;59;2259;-78
2023/12/11 16:09:58;;;;;;;;;;;;;;;;;;2211211;59;3082;-78
2023/12/11 16:12:34;;;;;;;;;;;;;;;;;;2209332;59;2597;-79
2023/12/11 16:15:07;;;;;;;;;;;;;;;;;;2208674;59;2268;-78
2023/12/11 16:17:37;;;;;;;;;;;;;;;;;;2210470;59;1727;-79
2023/12/11 16:20:08;;;;;;;;;;;;;;;;;;2210122;59;2637;-78
2023/12/11 16:22:38;;;;;;;;;;;;;;;;;;2211020;59;2415;-80
2023/12/11 16:25:12;;;;;;;;;;;;;;;;;;2209467;59;1473;-78
2023/12/11 16:27:42;;;;;;;;;;;;;;;;;;2210103;59;2286;-78
2023/12/11 16:30:13;;;;;;;;;;;;;;;;;;2209106;59;2258;-78
2023/12/11 16:32:43;;;;;;;;;;;;;;;;;;2206618;59;2083;-80
2023/12/11 16:35:13;;;;;;;;;;;;;;;;;;2209592;59;1436;-78
2023/12/11 16:37:44;;;;;;;;;;;;;;;;;;2210878;67;1800;-78
2023/12/11 16:40:14;;;;;;;;;;;;;;;;;;2211061;59;2404;-80
2023/12/11 16:42:47;;;;;;;;;;;;;;;;;;2210201;59;1642;-78
2023/12/11 16:45:17;;;;;;;;;;;;;;;;;;2208291;59;1895;-78
2023/12/11 16:47:53;;;;;;;;;;;;;;;;;;2206543;59;1895;-79
2023/12/11 16:50:24;;;;;;;;;;;;;;;;;;2209096;59;2371;-79
2023/12/11 16:52:55;;;;;;;;;;;;;;;;;;2209270;59;2082;-79
2023/12/11 16:55:26;;;;;;;;;;;;;;;;;;2208633;59;2556;-79
2023/12/11 16:57:56;;;;;;;;;;;;;;;;;;2209652;59;2051;-79
2023/12/11 17:00:26;;;;;;;;;;;;;;;;;;2208357;59;1708;-78
2023/12/11 17:02:57;;;;;;;;;;;;;;;;;;2208751;59;2638;-78
2023/12/11 17:05:27;;;;;;;;;;;;;;;;;;2208785;59;2285;-81
2023/12/11 17:07:59;;;;;;;;;;;;;;;;;;2210137;59;1497;-79
2023/12/11 17:10:30;;;;;;;;;;;;;;;;;;2209507;59;2406;-78
2023/12/11 17:13:00;;;;;;;;;;;;;;;;;;2209885;67;2197;-79
2023/12/11 17:15:38;;;;;;;;;;;;;;;;;;2205473;59;2594;-78
2023/12/11 17:18:08;;;;;;;;;;;;;;;;;;2205458;59;2331;-79
2023/12/11 17:20:39;;;;;;;;;;;;;;;;;;2210046;59;3046;-78
2023/12/11 17:23:09;;;;;;;;;;;;;;;;;;2207950;59;2244;-78
2023/12/11 17:25:39;;;;;;;;;;;;;;;;;;2208124;67;2554;-78
2023/12/11 17:28:09;;;;;;;;;;;;;;;;;;2208044;59;2496;-79
2023/12/11 17:30:40;;;;;;;;;;;;;;;;;;2208505;59;2390;-79
2023/12/11 17:33:10;;;;;;;;;;;;;;;;;;2207730;59;1991;-78
2023/12/11 17:35:40;;;;;;;;;;;;;;;;;;2208232;59;1902;-79